createdAt,value
2022-10-09T00:00:48.152Z,884.3755
2022-10-09T00:15:50.413Z,816.50367
2022-10-09T00:30:52.744Z,688.88277
2022-10-09T00:45:55.212Z,654.43866
2022-10-09T01:00:57.601Z,668.67903
2022-10-09T01:16:00.018Z,670.58229
2022-10-09T01:31:02.815Z,668.67903
2022-10-09T01:46:05.333Z,680.91881
2022-10-09T02:01:07.986Z,701.18424
2022-10-09T02:16:10.500Z,787.86241
2022-10-09T02:31:12.968Z,725.66088
2022-10-09T02:46:15.348Z,681.57544
2022-10-09T03:01:17.775Z,697.03522
2022-10-09T03:16:20.155Z,687.54253
2022-10-09T03:31:49.975Z,673.77858
2022-10-09T03:46:54.168Z,658.70806
2022-10-09T04:01:56.512Z,641.95618
2022-10-09T04:16:58.745Z,656.87151
2022-10-09T04:32:01.199Z,665.53083
2022-10-09T04:47:03.457Z,671.85716
2022-10-09T05:02:05.838Z,664.27983
2022-10-09T05:17:14.045Z,680.26346
2022-10-09T05:32:17.271Z,686.87437
2022-10-09T05:47:19.498Z,712.49366
2022-10-09T06:02:21.837Z,721.21806
2022-10-09T06:17:24.200Z,730.15878
2022-10-09T06:32:26.663Z,730.15878
2022-10-09T06:47:28.897Z,777.04608
2022-10-09T07:02:31.343Z,791.38752
2022-10-09T07:17:33.763Z,838.76754
2022-10-09T07:32:36.068Z,867.56641
2022-10-09T07:47:38.389Z,863.85886
2022-10-09T08:02:40.744Z,856.53803
2022-10-09T08:17:43.187Z,865.97357
2022-10-09T08:32:45.541Z,892.74498
2022-10-09T08:47:47.876Z,907.6336
2022-10-09T09:02:50.535Z,921.22446
2022-10-09T09:17:53.057Z,902.42397
2022-10-09T09:32:55.313Z,903.57649
2022-10-09T09:47:57.642Z,921.22446
2022-10-09T10:02:59.936Z,924.23303
2022-10-09T10:18:02.369Z,954.79132
2022-10-09T10:33:04.694Z,974.51841
2022-10-09T10:48:06.989Z,984.69083
2022-10-09T11:03:09.441Z,977.21044
2022-10-09T11:18:11.807Z,988.12899
2022-10-09T11:33:14.144Z,992.98296
2022-10-09T11:48:16.410Z,1016.52349
2022-10-09T12:03:18.895Z,1045.8246
2022-10-09T12:18:21.208Z,1076.86504
2022-10-09T12:33:23.488Z,1089.29996
2022-10-09T12:48:25.880Z,1107.19925
2022-10-09T13:03:28.177Z,1112.42189
2022-10-09T13:18:30.439Z,1088.46204
2022-10-09T13:33:32.750Z,1092.66459
2022-10-09T13:48:35.097Z,1098.60299
2022-10-09T14:03:37.422Z,1090.13918
2022-10-09T14:18:40.015Z,1067.11966
2022-10-09T14:33:42.326Z,1023.87894
2022-10-09T14:48:44.590Z,1028.34352
2022-10-09T15:03:46.871Z,997.88484
2022-10-09T15:18:49.188Z,1041.20727
2022-10-09T15:33:51.487Z,925.44196
2022-10-09T15:48:53.901Z,1093.509
2022-10-09T16:03:56.217Z,1114.17373
2022-10-09T16:18:58.542Z,1146.67798
2022-10-09T16:34:00.922Z,1244.50358
2022-10-09T16:49:03.217Z,1213.55111
2022-10-09T17:04:05.653Z,1204.25582
2022-10-09T17:19:08.168Z,1183.11087
2022-10-09T17:34:10.454Z,1245.5991
2022-10-09T17:49:12.757Z,1221.93488
2022-10-09T18:04:15.090Z,1258.8973
2022-10-09T18:19:17.412Z,1301.74844
2022-10-09T18:34:19.690Z,1274.77528
2022-10-09T18:49:21.981Z,1205.2816
2022-10-09T19:04:24.439Z,1197.12402
2022-10-09T19:19:26.683Z,1227.23381
2022-10-09T19:34:28.990Z,1278.22996
2022-10-09T19:49:31.303Z,1274.77528
2022-10-09T20:04:33.583Z,1233.65351
2022-10-09T20:19:35.886Z,1215.63624
2022-10-09T20:34:38.224Z,1226.17035
2022-10-09T20:49:40.498Z,1214.59278
2022-10-09T21:04:42.801Z,1323.66749
2022-10-09T21:19:45.218Z,1402.3791
2022-10-09T21:34:47.588Z,1537.20853
2022-10-09T21:49:49.827Z,1552.38667
2022-10-09T22:04:52.136Z,1566.1322
2022-10-09T22:19:54.414Z,1560.0887
2022-10-09T22:34:56.727Z,1430.73863
2022-10-09T22:49:59.012Z,1291.0589
2022-10-09T23:05:01.357Z,1147.60797
2022-10-09T23:20:03.641Z,1054.39692
2022-10-09T23:35:06.107Z,981.95747
2022-10-09T23:50:08.672Z,940.82497
